createdAt,value
2022-08-22T00:00:14.235Z,5.32
2022-08-22T00:02:49.790Z,5.15
2022-08-22T00:03:02.258Z,6.32
2022-08-22T00:03:18.393Z,5.35
2022-08-22T00:06:07.752Z,6.13
2022-08-22T00:08:55.571Z,5.82
2022-08-22T00:11:37.134Z,5.97
2022-08-22T00:14:17.385Z,4.70
2022-08-22T00:16:59.118Z,4.35
2022-08-22T00:19:41.938Z,3.90
2022-08-22T00:22:21.550Z,6.30
2022-08-22T00:24:57.620Z,4.38
2022-08-22T00:27:33.898Z,5.68
2022-08-22T00:30:11.654Z,4.32
2022-08-22T00:32:48.049Z,4.05
2022-08-22T00:35:26.299Z,4.53
2022-08-22T00:38:04.436Z,4.72
2022-08-22T00:40:54.303Z,4.47
2022-08-22T00:43:55.256Z,4.10
2022-08-22T00:47:51.164Z,4.13
2022-08-22T00:51:01.603Z,4.82
2022-08-22T00:53:47.308Z,4.97
2022-08-22T00:57:01.541Z,4.28
2022-08-22T01:00:06.867Z,4.30
2022-08-22T01:02:54.470Z,4.10
2022-08-22T01:05:38.163Z,3.75
2022-08-22T01:08:25.223Z,5.55
2022-08-22T01:11:25.292Z,4.93
2022-08-22T01:14:09.490Z,4.25
2022-08-22T01:17:01.071Z,4.95
2022-08-22T01:20:48.683Z,4.30
2022-08-22T01:23:59.324Z,5.88
2022-08-22T01:27:17.982Z,4.47
2022-08-22T01:30:20.797Z,5.18
2022-08-22T01:33:32.114Z,4.05
2022-08-22T01:36:23.839Z,4.57
2022-08-22T01:39:37.466Z,5.70
2022-08-22T01:42:46.303Z,3.95
2022-08-22T01:45:59.081Z,4.97
2022-08-22T01:48:39.334Z,4.70
2022-08-22T01:51:22.979Z,4.60
2022-08-22T01:54:01.426Z,5.22
2022-08-22T01:56:37.162Z,3.50
2022-08-22T01:59:11.183Z,5.70
2022-08-22T02:01:55.282Z,5.68
2022-08-22T02:04:46.501Z,5.68
2022-08-22T02:07:29.155Z,6.40
2022-08-22T02:10:16.612Z,4.63
2022-08-22T02:12:53.843Z,8.00
2022-08-22T02:15:31.731Z,5.22
2022-08-22T02:18:18.508Z,4.88
2022-08-22T02:21:06.618Z,4.15
2022-08-22T02:23:50.474Z,6.85
2022-08-22T02:26:26.568Z,6.25
2022-08-22T02:29:01.122Z,4.18
2022-08-22T02:31:43.497Z,6.22
2022-08-22T02:34:34.889Z,4.05
2022-08-22T02:37:13.171Z,4.72
2022-08-22T02:39:51.866Z,4.30
2022-08-22T02:42:28.922Z,4.20
2022-08-22T02:45:13.414Z,5.10
2022-08-22T02:47:50.136Z,4.68
2022-08-22T02:50:27.291Z,5.28
2022-08-22T02:53:04.522Z,6.00
2022-08-22T02:55:48.416Z,6.32
2022-08-22T02:58:29.100Z,6.38
2022-08-22T03:01:27.211Z,4.97
2022-08-22T03:04:27.848Z,6.10
2022-08-22T03:07:12.071Z,5.60
2022-08-22T03:09:49.625Z,4.45
2022-08-22T03:12:27.895Z,5.10
2022-08-22T03:15:06.805Z,4.32
2022-08-22T03:17:41.733Z,4.50
2022-08-22T03:20:15.657Z,4.88
2022-08-22T03:22:51.618Z,4.43
2022-08-22T03:25:30.892Z,5.57
2022-08-22T03:28:05.879Z,6.43
2022-08-22T03:30:41.328Z,5.85
2022-08-22T03:33:20.545Z,4.40
2022-08-22T03:36:05.004Z,5.93
2022-08-22T03:38:55.284Z,5.43
2022-08-22T03:41:49.295Z,4.78
2022-08-22T03:45:01.409Z,4.90
2022-08-22T03:48:06.702Z,8.82
2022-08-22T03:51:01.678Z,5.00
2022-08-22T03:54:23.280Z,4.85
2022-08-22T03:58:00.029Z,5.43
2022-08-22T04:01:25.902Z,5.93
2022-08-22T04:04:52.921Z,6.25
2022-08-22T04:08:00.583Z,3.90
2022-08-22T04:10:52.693Z,4.55
2022-08-22T04:14:04.504Z,4.10
2022-08-22T04:17:01.076Z,4.63
2022-08-22T04:20:02.876Z,5.60
2022-08-22T04:23:16.024Z,6.13
2022-08-22T04:25:48.589Z,5.10
2022-08-22T04:28:23.631Z,6.13
2022-08-22T04:31:00.023Z,5.40
2022-08-22T04:33:38.041Z,3.83
2022-08-22T04:36:14.332Z,5.30
2022-08-22T04:38:49.167Z,6.03
2022-08-22T04:41:26.041Z,4.82
2022-08-22T04:43:59.863Z,6.05
2022-08-22T04:46:37.044Z,4.07
2022-08-22T04:49:17.787Z,4.53
2022-08-22T04:51:49.721Z,4.13
2022-08-22T04:54:34.057Z,5.00
2022-08-22T04:57:21.954Z,6.60
2022-08-22T04:59:51.341Z,5.32
2022-08-22T05:02:27.570Z,6.88
2022-08-22T05:05:10.461Z,5.50
2022-08-22T05:07:47.447Z,5.18
2022-08-22T05:10:22.779Z,5.72
2022-08-22T05:13:00.938Z,4.63
2022-08-22T05:15:36.277Z,4.43
2022-08-22T05:18:09.438Z,5.45
2022-08-22T05:20:41.241Z,7.28
2022-08-22T05:23:21.499Z,4.60
2022-08-22T05:25:55.719Z,5.50
2022-08-22T05:28:34.752Z,7.25
2022-08-22T05:31:08.025Z,5.35
2022-08-22T05:33:41.979Z,9.27
2022-08-22T05:36:17.680Z,6.20
2022-08-22T05:38:51.639Z,8.52
2022-08-22T05:41:23.738Z,10.68
2022-08-22T05:43:53.647Z,10.52
2022-08-22T05:46:27.184Z,8.90
2022-08-22T05:49:00.107Z,8.32
2022-08-22T05:51:41.346Z,9.80
2022-08-22T05:54:16.166Z,7.18
2022-08-22T05:56:58.747Z,6.03
2022-08-22T05:59:31.609Z,5.57
2022-08-22T06:02:07.047Z,7.10
2022-08-22T06:04:46.327Z,6.47
2022-08-22T06:07:23.897Z,7.72
2022-08-22T06:10:15.382Z,6.15
2022-08-22T06:12:55.699Z,4.38
2022-08-22T06:15:33.317Z,4.93
2022-08-22T06:18:07.321Z,5.70
2022-08-22T06:20:43.181Z,6.30
2022-08-22T06:23:21.684Z,5.55
2022-08-22T06:25:51.080Z,12.85
2022-08-22T06:28:23.137Z,9.38
2022-08-22T06:30:54.044Z,7.97
2022-08-22T06:33:26.876Z,6.38
2022-08-22T06:36:20.665Z,8.52
2022-08-22T06:39:08.946Z,6.35
2022-08-22T06:41:43.995Z,6.55
2022-08-22T06:44:18.756Z,11.52
2022-08-22T06:46:49.407Z,8.43
2022-08-22T06:49:18.616Z,7.63
2022-08-22T06:51:49.076Z,6.28
2022-08-22T06:54:22.752Z,6.72
2022-08-22T06:56:53.506Z,6.10
2022-08-22T06:59:26.965Z,7.85
2022-08-22T07:02:03.364Z,6.30
2022-08-22T07:04:32.637Z,8.50
2022-08-22T07:07:03.367Z,6.15
2022-08-22T07:09:37.402Z,7.05
2022-08-22T07:12:12.758Z,7.13
2022-08-22T07:14:43.896Z,5.90
2022-08-22T07:17:19.405Z,5.47
2022-08-22T07:19:58.125Z,5.55
2022-08-22T07:22:31.320Z,5.75
2022-08-22T07:25:09.065Z,5.75
2022-08-22T07:27:56.788Z,6.55
2022-08-22T07:30:28.562Z,5.78
2022-08-22T07:33:26.533Z,7.03
2022-08-22T07:36:00.069Z,4.40
2022-08-22T07:38:42.705Z,4.63
2022-08-22T07:41:17.359Z,4.70
2022-08-22T07:43:51.536Z,5.18
2022-08-22T07:46:29.694Z,3.85
2022-08-22T07:49:09.754Z,4.28
2022-08-22T07:51:45.901Z,4.18
2022-08-22T07:54:20.248Z,3.90
2022-08-22T07:56:59.746Z,4.35
2022-08-22T07:59:29.407Z,7.50
2022-08-22T08:02:01.626Z,4.93
2022-08-22T08:04:36.865Z,4.10
2022-08-22T08:07:10.572Z,5.43
2022-08-22T08:09:42.972Z,8.27
2022-08-22T08:12:15.243Z,6.22
2022-08-22T08:14:46.535Z,4.55
2022-08-22T08:17:23.130Z,4.50
2022-08-22T08:19:54.496Z,4.72
2022-08-22T08:22:27.289Z,6.90
2022-08-22T08:24:59.607Z,4.75
2022-08-22T08:27:51.325Z,5.32
2022-08-22T08:30:24.179Z,3.40
2022-08-22T08:32:59.603Z,3.85
2022-08-22T08:36:03.323Z,5.82
2022-08-22T08:38:38.775Z,6.28
2022-08-22T08:41:44.021Z,5.03
2022-08-22T08:44:32.061Z,6.40
2022-08-22T08:47:25.509Z,5.07
2022-08-22T08:50:13.701Z,4.60
2022-08-22T08:53:50.971Z,4.53
2022-08-22T08:56:29.923Z,3.63
2022-08-22T08:59:11.018Z,4.80
2022-08-22T09:02:27.697Z,3.67
2022-08-22T09:06:03.709Z,6.18
2022-08-22T09:09:12.784Z,5.00
2022-08-22T09:12:15.799Z,3.30
2022-08-22T09:18:42.369Z,3.58
2022-08-22T09:21:38.174Z,3.53
2022-08-22T09:24:43.943Z,4.25
2022-08-22T09:27:18.941Z,4.68
2022-08-22T09:29:59.757Z,3.35
2022-08-22T09:32:55.780Z,4.28
2022-08-22T09:35:38.614Z,4.28
2022-08-22T09:38:30.956Z,3.15
2022-08-22T09:40:15.455Z,4.82
2022-08-22T09:41:14.608Z,5.25
2022-08-22T09:43:50.239Z,3.60
2022-08-22T09:46:22.720Z,4.32
2022-08-22T09:49:07.018Z,4.38
2022-08-22T09:51:43.139Z,2.97
2022-08-22T09:54:32.961Z,4.03
2022-08-22T09:57:18.944Z,3.10
2022-08-22T10:00:22.131Z,3.25
2022-08-22T10:03:11.144Z,3.10
2022-08-22T10:05:47.386Z,4.32
2022-08-22T10:08:40.459Z,3.00
2022-08-22T10:11:28.883Z,3.58
2022-08-22T10:14:03.352Z,3.42
2022-08-22T10:16:59.794Z,2.83
2022-08-22T10:19:34.173Z,3.40
2022-08-22T10:22:37.096Z,4.88
2022-08-22T10:25:28.714Z,3.05
2022-08-22T10:28:11.966Z,3.08
2022-08-22T10:30:54.542Z,2.85
2022-08-22T10:33:31.797Z,2.70
2022-08-22T10:36:07.855Z,3.08
2022-08-22T10:38:47.112Z,3.28
2022-08-22T10:41:31.409Z,3.30
2022-08-22T10:44:06.257Z,3.00
2022-08-22T10:46:42.384Z,2.85
2022-08-22T10:49:20.336Z,3.83
2022-08-22T10:52:00.080Z,4.82
2022-08-22T10:54:45.915Z,7.30
2022-08-22T10:57:33.800Z,5.82
2022-08-22T11:00:13.772Z,3.05
2022-08-22T11:02:53.677Z,4.70
2022-08-22T11:05:37.910Z,3.50
2022-08-22T11:08:34.610Z,4.13
2022-08-22T11:11:21.543Z,6.80
2022-08-22T11:14:28.124Z,2.75
2022-08-22T11:17:11.970Z,3.15
2022-08-22T11:20:13.369Z,4.50
2022-08-22T11:22:52.008Z,4.03
2022-08-22T11:25:41.168Z,4.82
2022-08-22T11:28:55.218Z,3.78
2022-08-22T11:31:36.743Z,4.65
2022-08-22T11:34:16.349Z,3.83
2022-08-22T11:36:52.941Z,7.28
2022-08-22T11:39:33.409Z,3.72
2022-08-22T11:42:11.047Z,4.13
2022-08-22T11:44:50.772Z,4.10
2022-08-22T11:47:26.787Z,4.47
2022-08-22T11:50:03.723Z,4.07
2022-08-22T11:53:07.534Z,3.58
2022-08-22T11:55:44.505Z,21.30
2022-08-22T11:58:30.269Z,77.63
2022-08-22T12:01:06.436Z,51.70
2022-08-22T12:04:03.446Z,158.85
2022-08-22T12:06:56.225Z,128.10
2022-08-22T12:09:41.919Z,132.15
2022-08-22T12:12:36.872Z,117.07
2022-08-22T12:15:13.981Z,130.00
2022-08-22T12:18:23.758Z,114.18
2022-08-22T12:21:38.698Z,112.72
2022-08-22T12:24:43.280Z,100.53
2022-08-22T12:27:30.936Z,106.15
2022-08-22T12:30:15.158Z,99.00
2022-08-22T12:33:23.075Z,99.05
2022-08-22T12:36:18.948Z,85.93
2022-08-22T12:39:24.586Z,97.57
2022-08-22T12:42:19.122Z,85.40
2022-08-22T12:45:20.724Z,85.60
2022-08-22T12:48:04.725Z,88.00
2022-08-22T12:50:46.165Z,79.32
2022-08-22T12:54:00.611Z,87.47
2022-08-22T12:56:42.218Z,73.47
2022-08-22T12:59:27.288Z,69.40
2022-08-22T13:01:59.696Z,82.28
2022-08-22T13:04:33.638Z,58.58
2022-08-22T13:07:24.388Z,61.08
2022-08-22T13:10:00.325Z,62.92
2022-08-22T13:12:34.051Z,49.53
2022-08-22T13:15:28.762Z,42.20
2022-08-22T13:18:18.823Z,45.90
2022-08-22T13:20:52.433Z,44.38
2022-08-22T13:23:27.453Z,32.85
2022-08-22T13:26:16.465Z,39.60
2022-08-22T13:29:24.653Z,28.85
2022-08-22T13:32:00.117Z,29.42
2022-08-22T13:34:40.316Z,32.78
2022-08-22T13:37:15.284Z,32.35
2022-08-22T13:39:48.923Z,29.63
2022-08-22T13:42:29.719Z,21.98
2022-08-22T13:45:05.409Z,21.40
2022-08-22T13:47:46.349Z,24.90
2022-08-22T13:50:22.578Z,22.88
2022-08-22T13:53:00.628Z,22.10
2022-08-22T13:55:39.365Z,22.85
2022-08-22T13:58:26.096Z,17.23
2022-08-22T14:01:25.477Z,15.40
2022-08-22T14:04:02.649Z,18.45
2022-08-22T14:06:41.439Z,16.58
2022-08-22T14:09:31.198Z,14.45
2022-08-22T14:12:14.256Z,14.00
2022-08-22T14:14:48.935Z,17.40
2022-08-22T14:17:24.959Z,12.98
2022-08-22T14:20:01.533Z,13.85
2022-08-22T14:22:35.342Z,11.25
2022-08-22T14:25:09.137Z,12.95
2022-08-22T14:27:43.883Z,11.57
2022-08-22T14:30:20.323Z,13.00
2022-08-22T14:32:54.447Z,14.10
2022-08-22T14:35:35.024Z,15.27
2022-08-22T14:38:27.314Z,12.63
2022-08-22T14:41:04.164Z,10.73
2022-08-22T14:43:52.385Z,13.95
2022-08-22T14:46:28.041Z,12.40
2022-08-22T14:49:29.388Z,10.98
2022-08-22T14:52:06.845Z,10.90
2022-08-22T14:54:38.788Z,10.93
2022-08-22T14:57:19.913Z,8.48
2022-08-22T14:59:52.552Z,9.80
2022-08-22T15:02:29.661Z,9.98
2022-08-22T15:05:01.583Z,10.05
2022-08-22T15:07:34.432Z,13.60
2022-08-22T15:10:11.948Z,7.00
2022-08-22T15:12:48.289Z,10.73
2022-08-22T15:15:49.254Z,8.85
2022-08-22T15:18:37.066Z,8.70
2022-08-22T15:21:10.090Z,8.65
2022-08-22T15:23:45.326Z,12.40
2022-08-22T15:26:25.633Z,10.20
2022-08-22T15:29:05.683Z,12.55
2022-08-22T15:31:35.349Z,9.13
2022-08-22T15:34:13.814Z,8.40
2022-08-22T15:37:24.107Z,9.90
2022-08-22T15:40:11.913Z,9.27
2022-08-22T15:42:45.025Z,9.82
2022-08-22T15:45:29.682Z,10.18
2022-08-22T15:48:02.274Z,7.88
2022-08-22T15:50:36.725Z,9.23
2022-08-22T15:53:18.909Z,10.70
2022-08-22T15:56:30.615Z,9.55
2022-08-22T15:59:52.690Z,7.65
2022-08-22T16:02:30.105Z,8.73
2022-08-22T16:05:25.956Z,8.18
2022-08-22T16:08:06.061Z,9.07
2022-08-22T16:10:40.154Z,7.70
2022-08-22T16:13:33.519Z,10.60
2022-08-22T16:16:06.897Z,8.48
2022-08-22T16:19:19.483Z,6.25
2022-08-22T16:22:10.792Z,9.38
2022-08-22T16:25:10.589Z,11.52
2022-08-22T16:27:55.199Z,5.80
2022-08-22T16:30:38.646Z,8.02
2022-08-22T16:33:14.836Z,5.88
2022-08-22T16:36:47.191Z,5.70
2022-08-22T16:39:38.885Z,10.55
2022-08-22T16:42:29.489Z,6.45
2022-08-22T16:45:15.828Z,7.10
2022-08-22T16:47:56.587Z,7.28
2022-08-22T16:50:34.950Z,7.00
2022-08-22T16:53:10.153Z,8.10
2022-08-22T16:56:18.082Z,4.85
2022-08-22T16:59:35.609Z,6.68
2022-08-22T17:02:45.275Z,4.13
2022-08-22T17:05:30.450Z,6.63
2022-08-22T17:08:29.298Z,6.75
2022-08-22T17:11:15.203Z,6.57
2022-08-22T17:14:04.289Z,4.88
2022-08-22T17:16:53.389Z,4.75
2022-08-22T17:19:38.530Z,5.80
2022-08-22T17:22:19.956Z,4.57
2022-08-22T17:25:04.056Z,6.47
2022-08-22T17:27:37.808Z,4.22
2022-08-22T17:30:13.638Z,4.68
2022-08-22T17:33:15.790Z,4.60
2022-08-22T17:36:26.218Z,8.63
2022-08-22T17:39:12.392Z,130.85
2022-08-22T17:41:51.851Z,109.57
2022-08-22T17:44:29.495Z,117.35
2022-08-22T17:47:07.149Z,176.63
2022-08-22T17:49:52.155Z,239.25
2022-08-22T17:52:30.959Z,326.02
2022-08-22T17:55:03.846Z,491.30
2022-08-22T17:57:37.499Z,493.20
2022-08-22T18:00:17.871Z,407.50
2022-08-22T18:02:56.153Z,334.00
2022-08-22T18:05:28.987Z,243.65
2022-08-22T18:08:07.750Z,111.75
2022-08-22T18:10:49.087Z,66.13
2022-08-22T18:13:38.214Z,58.47
2022-08-22T18:16:15.574Z,44.30
2022-08-22T18:18:53.014Z,41.47
2022-08-22T18:21:30.399Z,28.95
2022-08-22T18:24:02.444Z,29.20
2022-08-22T18:26:39.371Z,25.58
2022-08-22T18:29:14.805Z,23.77
2022-08-22T18:31:56.659Z,24.67
2022-08-22T18:34:34.138Z,17.33
2022-08-22T18:37:21.124Z,16.85
2022-08-22T18:39:56.330Z,12.88
2022-08-22T18:42:29.531Z,10.52
2022-08-22T18:44:58.120Z,12.90
2022-08-22T18:47:28.299Z,9.52
2022-08-22T18:49:58.242Z,11.48
2022-08-22T18:52:40.601Z,10.48
2022-08-22T18:55:45.883Z,9.43
2022-08-22T18:59:05.038Z,9.30
2022-08-22T19:01:48.444Z,7.43
2022-08-22T19:05:11.705Z,9.60
2022-08-22T19:08:11.038Z,7.28
2022-08-22T19:11:08.826Z,7.07
2022-08-22T19:14:11.971Z,8.40
2022-08-22T19:17:16.251Z,7.45
2022-08-22T19:20:15.494Z,8.45
2022-08-22T19:22:44.744Z,14.00
2022-08-22T19:25:28.020Z,7.35
2022-08-22T19:28:26.666Z,5.75
2022-08-22T19:31:23.446Z,6.22
2022-08-22T19:34:13.948Z,7.80
2022-08-22T19:36:43.397Z,6.22
2022-08-22T19:39:12.985Z,3.92
2022-08-22T19:41:53.469Z,4.40
2022-08-22T19:44:42.186Z,3.88
2022-08-22T19:47:27.979Z,3.10
2022-08-22T19:50:02.063Z,3.75
2022-08-22T19:52:55.755Z,5.72
2022-08-22T19:55:35.590Z,3.75
2022-08-22T19:58:31.756Z,4.30
2022-08-22T20:01:11.557Z,3.25
2022-08-22T20:03:51.638Z,3.72
2022-08-22T20:06:43.829Z,3.78
2022-08-22T20:09:28.390Z,2.72
2022-08-22T20:12:12.026Z,2.90
2022-08-22T20:14:47.042Z,5.07
2022-08-22T20:17:43.389Z,3.33
2022-08-22T20:20:31.603Z,3.20
2022-08-22T20:23:12.383Z,3.38
2022-08-22T20:25:48.584Z,3.30
2022-08-22T20:28:41.000Z,4.65
2022-08-22T20:31:21.761Z,4.10
2022-08-22T20:33:59.798Z,6.25
2022-08-22T20:36:29.454Z,2.88
2022-08-22T20:39:02.517Z,5.65
2022-08-22T20:41:36.553Z,5.05
2022-08-22T20:44:13.500Z,4.82
2022-08-22T20:46:53.989Z,5.25
2022-08-22T20:49:28.546Z,4.60
2022-08-22T20:51:59.457Z,4.75
2022-08-22T20:54:31.375Z,4.18
2022-08-22T20:57:02.898Z,3.33
2022-08-22T20:59:37.071Z,8.80
2022-08-22T21:02:14.548Z,2.80
2022-08-22T21:04:54.047Z,4.85
2022-08-22T21:07:25.975Z,3.10
2022-08-22T21:10:21.617Z,4.88
2022-08-22T21:13:09.834Z,2.88
2022-08-22T21:15:41.772Z,3.33
2022-08-22T21:18:12.923Z,2.55
2022-08-22T21:20:42.819Z,3.00
2022-08-22T21:23:21.199Z,3.10
2022-08-22T21:25:58.451Z,2.30
2022-08-22T21:28:32.968Z,4.43
2022-08-22T21:31:08.344Z,2.45
2022-08-22T21:33:39.802Z,2.53
2022-08-22T21:36:13.088Z,2.42
2022-08-22T21:38:46.514Z,2.60
2022-08-22T21:41:19.364Z,2.45
2022-08-22T21:43:48.312Z,3.92
2022-08-22T21:46:28.617Z,3.20
2022-08-22T21:49:02.648Z,3.35
2022-08-22T21:51:42.659Z,2.20
2022-08-22T21:54:41.044Z,2.30
2022-08-22T21:57:20.316Z,2.95
2022-08-22T21:59:59.084Z,2.70
2022-08-22T22:02:37.180Z,4.07
2022-08-22T22:05:11.751Z,3.03
2022-08-22T22:07:45.086Z,2.47
2022-08-22T22:10:18.687Z,2.97
2022-08-22T22:12:49.524Z,2.35
2022-08-22T22:15:22.344Z,3.67
2022-08-22T22:17:50.950Z,2.55
2022-08-22T22:20:22.138Z,2.47
2022-08-22T22:22:51.762Z,2.75
2022-08-22T22:25:40.102Z,3.40
2022-08-22T22:28:13.643Z,4.35
2022-08-22T22:30:43.064Z,2.30
2022-08-22T22:33:12.097Z,3.30
2022-08-22T22:35:41.664Z,2.92
2022-08-22T22:38:11.497Z,3.28
2022-08-22T22:40:39.704Z,2.20
2022-08-22T22:43:07.923Z,3.35
2022-08-22T22:45:36.246Z,2.50
2022-08-22T22:48:05.225Z,2.78
2022-08-22T22:50:33.788Z,2.85
2022-08-22T22:53:01.990Z,4.07
2022-08-22T22:55:31.589Z,3.25
2022-08-22T22:58:00.127Z,2.47
2022-08-22T23:00:31.221Z,3.60
2022-08-22T23:03:01.384Z,3.70
2022-08-22T23:05:30.568Z,3.03
2022-08-22T23:08:00.176Z,2.45
2022-08-22T23:10:32.391Z,3.65
2022-08-22T23:13:00.978Z,4.25
2022-08-22T23:15:29.519Z,3.30
2022-08-22T23:17:58.204Z,2.45
2022-08-22T23:20:26.554Z,3.05
2022-08-22T23:22:54.818Z,4.05
2022-08-22T23:25:22.998Z,3.65
2022-08-22T23:27:52.776Z,2.58
2022-08-22T23:30:21.690Z,3.28
2022-08-22T23:32:49.947Z,3.50
2022-08-22T23:35:18.403Z,3.00
2022-08-22T23:37:46.567Z,3.47
2022-08-22T23:40:14.952Z,2.80
2022-08-22T23:42:43.537Z,4.90
2022-08-22T23:45:13.114Z,2.35
2022-08-22T23:47:41.371Z,4.65
2022-08-22T23:50:10.415Z,3.92
2022-08-22T23:52:38.557Z,2.28
2022-08-22T23:55:07.808Z,2.60
2022-08-22T23:57:35.980Z,3.95
